Station Historical Data
Daily Summary for May 25, 2011 Units:  Both    English   Metric
« Previous Day
Next Day »
Daily Weekly Monthly Yearly Custom
  High: Low: Average:
Temperature: 85.6 °F /  29.8 °C 69.6 °F /  20.9 °C 77.4 °F /  25.2 °C
Dew Point: 71.2 °F /  21.8 °C 65.8 °F /  18.8 °C 68.1 °F /  20.1 °C
Humidity: 92% 57% 74%
Wind Speed: 21.0mph /  33.8km/h - 8.6mph /  13.8km/h
Wind Gust: 24.0mph /  38.6km/h - -
Wind- - SSE
Pressure: 29.85 in /  1010.7 hPa 29.63 in /  1003.3 hPa -
Precipitation: 0.00 in /  0 mm    
Historical Graphs
 
 
Tabular Data for May 25, 2011
Time Temperature Dew Point Pressure Wind Wind Speed Wind Gust Humidity Rainfall Rate (Hourly) Conditions
00:00 74.1 °F /  23.4 °C 66.8 °F /  19.3 °C 29.84in /  1010.4hPa SE 3.0mph /  4.8km/h 5.0mph /  8km/h 78% 0.00in /  0mm
00:01 74.1 °F /  23.4 °C 66.8 °F /  19.3 °C 29.84in /  1010.4hPa SE 5.0mph /  8km/h 5.0mph /  8km/h 78% 0.00in /  0mm
00:02 74.1 °F /  23.4 °C 66.8 °F /  19.3 °C 29.84in /  1010.4hPa SE 5.0mph /  8km/h 6.0mph /  9.7km/h 78% 0.00in /  0mm
00:06 73.9 °F /  23.3 °C 67.0 °F /  19.4 °C 29.84in /  1010.4hPa SSE 4.0mph /  6.4km/h 6.0mph /  9.7km/h 79% 0.00in /  0mm
00:09 73.9 °F /  23.3 °C 67.0 °F /  19.4 °C 29.84in /  1010.4hPa SE 3.0mph /  4.8km/h 5.0mph /  8km/h 79% 0.00in /  0mm
00:14 73.8 °F /  23.2 °C 66.9 °F /  19.4 °C 29.84in /  1010.4hPa ESE 4.0mph /  6.4km/h 5.0mph /  8km/h 79% 0.00in /  0mm
00:19 73.7 °F /  23.2 °C 66.8 °F /  19.3 °C 29.84in /  1010.4hPa SE 4.0mph /  6.4km/h 4.0mph /  6.4km/h 79% 0.00in /  0mm
00:24 73.6 °F /  23.1 °C 66.7 °F /  19.3 °C 29.84in /  1010.4hPa ESE 5.0mph /  8km/h 5.0mph /  8km/h 79% 0.00in /  0mm
00:29 73.5 °F /  23.1 °C 67.0 °F /  19.4 °C 29.85in /  1010.7hPa SE 3.0mph /  4.8km/h 5.0mph /  8km/h 80% 0.00in /  0mm
00:30 73.5 °F /  23.1 °C 67.0 °F /  19.4 °C 29.85in /  1010.7hPa SE 5.0mph /  8km/h 6.0mph /  9.7km/h 80% 0.00in /  0mm
00:33 73.5 °F /  23.1 °C 67.0 °F /  19.4 °C 29.84in /  1010.4hPa SE 4.0mph /  6.4km/h 6.0mph /  9.7km/h 80% 0.00in /  0mm
00:35 73.4 °F /  23 °C 66.9 °F /  19.4 °C 29.84in /  1010.4hPa SSE 3.0mph /  4.8km/h 4.0mph /  6.4km/h 80% 0.00in /  0mm
00:38 73.2 °F /  22.9 °C 67.0 °F /  19.4 °C 29.84in /  1010.4hPa SE 3.0mph /  4.8km/h 6.0mph /  9.7km/h 81% 0.00in /  0mm
00:43 73.1 °F /  22.8 °C 66.9 °F /  19.4 °C 29.84in /  1010.4hPa SE 3.0mph /  4.8km/h 6.0mph /  9.7km/h 81% 0.00in /  0mm
00:48 73.1 °F /  22.8 °C 66.9 °F /  19.4 °C 29.84in /  1010.4hPa SE 3.0mph /  4.8km/h 4.0mph /  6.4km/h 81% 0.00in /  0mm
00:53 73.1 °F /  22.8 °C 66.9 °F /  19.4 °C 29.84in /  1010.4hPa SE 4.0mph /  6.4km/h 6.0mph /  9.7km/h 81% 0.00in /  0mm
00:54 73.1 °F /  22.8 °C 66.9 °F /  19.4 °C 29.84in /  1010.4hPa ESE 5.0mph /  8km/h 6.0mph /  9.7km/h 81% 0.00in /  0mm
00:55 73.2 °F /  22.9 °C 67.0 °F /  19.4 °C 29.84in /  1010.4hPa SE 4.0mph /  6.4km/h 6.0mph /  9.7km/h 81% 0.00in /  0mm
00:59 73.3 °F /  22.9 °C 67.1 °F /  19.5 °C 29.84in /  1010.4hPa SE 3.0mph /  4.8km/h 7.0mph /  11.3km/h 81% 0.00in /  0mm
01:00 73.3 °F /  22.9 °C 67.1 °F /  19.5 °C 29.84in /  1010.4hPa SE 3.0mph /  4.8km/h 7.0mph /  11.3km/h 81% 0.00in /  0mm
01:01 73.3 °F /  22.9 °C 67.1 °F /  19.5 °C 29.84in /  1010.4hPa SE 4.0mph /  6.4km/h 7.0mph /  11.3km/h 81% 0.00in /  0mm
01:06 73.3 °F /  22.9 °C 67.1 °F /  19.5 °C 29.84in /  1010.4hPa SE 4.0mph /  6.4km/h 6.0mph /  9.7km/h 81% 0.00in /  0mm
01:11 73.4 °F /  23 °C 67.2 °F /  19.6 °C 29.84in /  1010.4hPa SE 5.0mph /  8km/h 7.0mph /  11.3km/h 81% 0.00in /  0mm
01:16 73.3 °F /  22.9 °C 67.1 °F /  19.5 °C 29.84in /  1010.4hPa SE 5.0mph /  8km/h 7.0mph /  11.3km/h 81% 0.00in /  0mm
01:21 73.3 °F /  22.9 °C 67.1 °F /  19.5 °C 29.84in /  1010.4hPa SE 4.0mph /  6.4km/h 6.0mph /  9.7km/h 81% 0.00in /  0mm
01:26 73.2 °F /  22.9 °C 67.0 °F /  19.4 °C 29.84in /  1010.4hPa ESE 4.0mph /  6.4km/h 6.0mph /  9.7km/h 81% 0.00in /  0mm
01:27 73.2 °F /  22.9 °C 67.0 °F /  19.4 °C 29.84in /  1010.4hPa ESE 4.0mph /  6.4km/h 6.0mph /  9.7km/h 81% 0.00in /  0mm
01:32 73.3 °F /  22.9 °C 67.1 °F /  19.5 °C 29.83in /  1010hPa SE 5.0mph /  8km/h 6.0mph /  9.7km/h 81% 0.00in /  0mm
01:37 73.4 °F /  23 °C 66.9 °F /  19.4 °C 29.83in /  1010hPa SE 5.0mph /  8km/h 7.0mph /  11.3km/h 80% 0.00in /  0mm
01:42 73.4 °F /  23 °C 66.9 °F /  19.4 °C 29.83in /  1010hPa SE 4.0mph /  6.4km/h 6.0mph /  9.7km/h 80% 0.00in /  0mm
01:47 73.3 °F /  22.9 °C 66.8 °F /  19.3 °C 29.83in /  1010hPa SE 4.0mph /  6.4km/h 6.0mph /  9.7km/h 80% 0.00in /  0mm
01:52 73.1 °F /  22.8 °C 66.9 °F /  19.4 °C 29.83in /  1010hPa ESE 6.0mph /  9.7km/h 6.0mph /  9.7km/h 81% 0.00in /  0mm
01:57 73.1 °F /  22.8 °C 66.9 °F /  19.4 °C 29.82in /  1009.7hPa ESE 4.0mph /  6.4km/h 5.0mph /  8km/h 81% 0.00in /  0mm
01:59 72.9 °F /  22.7 °C 66.7 °F /  19.3 °C 29.82in /  1009.7hPa ESE 4.0mph /  6.4km/h 5.0mph /  8km/h 81% 0.00in /  0mm
02:00 72.9 °F /  22.7 °C 66.7 °F /  19.3 °C 29.82in /  1009.7hPa SE 4.0mph /  6.4km/h 4.0mph /  6.4km/h 81% 0.00in /  0mm
02:02 72.8 °F /  22.7 °C 66.6 °F /  19.2 °C 29.82in /  1009.7hPa SE 3.0mph /  4.8km/h 5.0mph /  8km/h 81% 0.00in /  0mm
02:07 72.7 °F /  22.6 °C 66.5 °F /  19.2 °C 29.82in /  1009.7hPa SE 4.0mph /  6.4km/h 5.0mph /  8km/h 81% 0.00in /  0mm
02:12 72.6 °F /  22.6 °C 66.8 °F /  19.3 °C 29.82in /  1009.7hPa ESE 3.0mph /  4.8km/h 5.0mph /  8km/h 82% 0.00in /  0mm
02:17 72.5 °F /  22.5 °C 66.7 °F /  19.3 °C 29.82in /  1009.7hPa ESE 3.0mph /  4.8km/h 5.0mph /  8km/h 82% 0.00in /  0mm
02:22 72.3 °F /  22.4 °C 66.5 °F /  19.2 °C 29.82in /  1009.7hPa SE 4.0mph /  6.4km/h 6.0mph /  9.7km/h 82% 0.00in /  0mm
02:27 72.2 °F /  22.3 °C 66.4 °F /  19.1 °C 29.82in /  1009.7hPa ESE 5.0mph /  8km/h 5.0mph /  8km/h 82% 0.00in /  0mm
02:30 72.1 °F /  22.3 °C 66.7 °F /  19.3 °C 29.81in /  1009.4hPa SE 4.0mph /  6.4km/h 5.0mph /  8km/h 83% 0.00in /  0mm
02:32 72.1 °F /  22.3 °C 66.7 °F /  19.3 °C 29.81in /  1009.4hPa ESE 3.0mph /  4.8km/h 6.0mph /  9.7km/h 83% 0.00in /  0mm
02:35 72.0 °F /  22.2 °C 66.6 °F /  19.2 °C 29.81in /  1009.4hPa ESE 6.0mph /  9.7km/h 6.0mph /  9.7km/h 83% 0.00in /  0mm
02:37 72.0 °F /  22.2 °C 66.6 °F /  19.2 °C 29.81in /  1009.4hPa ESE 4.0mph /  6.4km/h 6.0mph /  9.7km/h 83% 0.00in /  0mm
02:42 72.1 °F /  22.3 °C 66.7 °F /  19.3 °C 29.82in /  1009.7hPa SE 5.0mph /  8km/h 8.0mph /  12.9km/h 83% 0.00in /  0mm
02:47 72.2 °F /  22.3 °C 66.8 °F /  19.3 °C 29.81in /  1009.4hPa ESE 7.0mph /  11.3km/h 7.0mph /  11.3km/h 83% 0.00in /  0mm
02:52 72.2 °F /  22.3 °C 66.4 °F /  19.1 °C 29.81in /  1009.4hPa SE 5.0mph /  8km/h 6.0mph /  9.7km/h 82% 0.00in /  0mm
02:57 72.1 °F /  22.3 °C 66.7 °F /  19.3 °C 29.81in /  1009.4hPa SE 5.0mph /  8km/h 7.0mph /  11.3km/h 83% 0.00in /  0mm
02:58 72.1 °F /  22.3 °C 66.7 °F /  19.3 °C 29.81in /  1009.4hPa SE 5.0mph /  8km/h 7.0mph /  11.3km/h 83% 0.00in /  0mm
03:00 72.0 °F /  22.2 °C 66.6 °F /  19.2 °C 29.81in /  1009.4hPa SE 5.0mph /  8km/h 7.0mph /  11.3km/h 83% 0.00in /  0mm
03:03 72.0 °F /  22.2 °C 66.6 °F /  19.2 °C 29.81in /  1009.4hPa SE 5.0mph /  8km/h 7.0mph /  11.3km/h 83% 0.00in /  0mm
03:04 72.0 °F /  22.2 °C 66.6 °F /  19.2 °C 29.81in /  1009.4hPa SE 6.0mph /  9.7km/h 7.0mph /  11.3km/h 83% 0.00in /  0mm
03:08 71.9 °F /  22.2 °C 66.5 °F /  19.2 °C 29.81in /  1009.4hPa SE 3.0mph /  4.8km/h 8.0mph /  12.9km/h 83% 0.00in /  0mm
03:13 71.8 °F /  22.1 °C 66.4 °F /  19.1 °C 29.81in /  1009.4hPa ESE 3.0mph /  4.8km/h 5.0mph /  8km/h 83% 0.00in /  0mm
03:18 71.6 °F /  22 °C 66.5 °F /  19.2 °C 29.82in /  1009.7hPa SSE 3.0mph /  4.8km/h 7.0mph /  11.3km/h 84% 0.00in /  0mm
03:19 71.6 °F /  22 °C 66.5 °F /  19.2 °C 29.82in /  1009.7hPa SE 3.0mph /  4.8km/h 6.0mph /  9.7km/h 84% 0.00in /  0mm
03:24 71.4 °F /  21.9 °C 66.3 °F /  19.1 °C 29.82in /  1009.7hPa SE 5.0mph /  8km/h 8.0mph /  12.9km/h 84% 0.00in /  0mm
03:29 71.5 °F /  21.9 °C 66.4 °F /  19.1 °C 29.82in /  1009.7hPa SE 4.0mph /  6.4km/h 7.0mph /  11.3km/h 84% 0.00in /  0mm
03:30 71.5 °F /  21.9 °C 66.4 °F /  19.1 °C 29.82in /  1009.7hPa SE 4.0mph /  6.4km/h 6.0mph /  9.7km/h 84% 0.00in /  0mm
03:34 71.5 °F /  21.9 °C 66.4 °F /  19.1 °C 29.82in /  1009.7hPa SSE 5.0mph /  8km/h 8.0mph /  12.9km/h 84% 0.00in /  0mm
03:35 71.5 °F /  21.9 °C 66.4 °F /  19.1 °C 29.82in /  1009.7hPa SE 4.0mph /  6.4km/h 8.0mph /  12.9km/h 84% 0.00in /  0mm
03:37 71.5 °F /  21.9 °C 66.4 °F /  19.1 °C 29.82in /  1009.7hPa SE 3.0mph /  4.8km/h 8.0mph /  12.9km/h 84% 0.00in /  0mm
03:40 71.4 °F /  21.9 °C 66.3 °F /  19.1 °C 29.82in /  1009.7hPa South 8.0mph /  12.9km/h 8.0mph /  12.9km/h 84% 0.00in /  0mm
03:41 71.4 °F /  21.9 °C 66.3 °F /  19.1 °C 29.82in /  1009.7hPa SE 6.0mph /  9.7km/h 8.0mph /  12.9km/h 84% 0.00in /  0mm
03:46 71.4 °F /  21.9 °C 66.3 °F /  19.1 °C 29.82in /  1009.7hPa SE 5.0mph /  8km/h 8.0mph /  12.9km/h 84% 0.00in /  0mm
03:51 71.4 °F /  21.9 °C 66.3 °F /  19.1 °C 29.82in /  1009.7hPa SE 8.0mph /  12.9km/h 8.0mph /  12.9km/h 84% 0.00in /  0mm
03:55 71.4 °F /  21.9 °C 66.3 °F /  19.1 °C 29.82in /  1009.7hPa SE 7.0mph /  11.3km/h 7.0mph /  11.3km/h 84% 0.00in /  0mm
03:56 71.4 °F /  21.9 °C 66.3 °F /  19.1 °C 29.82in /  1009.7hPa SE 6.0mph /  9.7km/h 8.0mph /  12.9km/h 84% 0.00in /  0mm
03:57 71.4 °F /  21.9 °C 66.3 °F /  19.1 °C 29.82in /  1009.7hPa SE 6.0mph /  9.7km/h 8.0mph /  12.9km/h 84% 0.00in /  0mm
04:00 71.5 °F /  21.9 °C 66.4 °F /  19.1 °C 29.82in /  1009.7hPa SE 7.0mph /  11.3km/h 9.0mph /  14.5km/h 84% 0.00in /  0mm
04:02 71.5 °F /  21.9 °C 66.4 °F /  19.1 °C 29.82in /  1009.7hPa SE 5.0mph /  8km/h 7.0mph /  11.3km/h 84% 0.00in /  0mm
04:05 71.5 °F /  21.9 °C 66.4 °F /  19.1 °C 29.82in /  1009.7hPa SSE 5.0mph /  8km/h 9.0mph /  14.5km/h 84% 0.00in /  0mm
04:10 71.4 °F /  21.9 °C 66.7 °F /  19.3 °C 29.82in /  1009.7hPa SSE 4.0mph /  6.4km/h 9.0mph /  14.5km/h 85% 0.00in /  0mm
04:15 71.3 °F /  21.8 °C 66.6 °F /  19.2 °C 29.81in /  1009.4hPa SSE 7.0mph /  11.3km/h 8.0mph /  12.9km/h 85% 0.00in /  0mm
04:20 71.4 °F /  21.9 °C 66.7 °F /  19.3 °C 29.81in /  1009.4hPa ESE 6.0mph /  9.7km/h 8.0mph /  12.9km/h 85% 0.00in /  0mm
04:25 71.3 °F /  21.8 °C 66.6 °F /  19.2 °C 29.81in /  1009.4hPa SSE 5.0mph /  8km/h 7.0mph /  11.3km/h 85% 0.00in /  0mm
04:26 71.3 °F /  21.8 °C 66.6 °F /  19.2 °C 29.81in /  1009.4hPa SSE 4.0mph /  6.4km/h 7.0mph /  11.3km/h 85% 0.00in /  0mm
04:30 71.3 °F /  21.8 °C 66.6 °F /  19.2 °C 29.82in /  1009.7hPa SE 5.0mph /  8km/h 7.0mph /  11.3km/h 85% 0.00in /  0mm
04:31 71.3 °F /  21.8 °C 66.6 °F /  19.2 °C 29.82in /  1009.7hPa ESE 7.0mph /  11.3km/h 7.0mph /  11.3km/h 85% 0.00in /  0mm
04:32 71.3 °F /  21.8 °C 66.6 °F /  19.2 °C 29.82in /  1009.7hPa SE 6.0mph /  9.7km/h 7.0mph /  11.3km/h 85% 0.00in /  0mm
04:36 71.2 °F /  21.8 °C 66.5 °F /  19.2 °C 29.82in /  1009.7hPa SSW 6.0mph /  9.7km/h 7.0mph /  11.3km/h 85% 0.00in /  0mm
04:41 71.2 °F /  21.8 °C 66.5 °F /  19.2 °C 29.82in /  1009.7hPa SSE 3.0mph /  4.8km/h 6.0mph /  9.7km/h 85% 0.00in /  0mm
04:46 71.1 °F /  21.7 °C 66.7 °F /  19.3 °C 29.81in /  1009.4hPa SE 4.0mph /  6.4km/h 5.0mph /  8km/h 86% 0.00in /  0mm
04:51 71.1 °F /  21.7 °C 66.7 °F /  19.3 °C 29.81in /  1009.4hPa SSE 5.0mph /  8km/h 7.0mph /  11.3km/h 86% 0.00in /  0mm
04:52 71.1 °F /  21.7 °C 66.7 °F /  19.3 °C 29.81in /  1009.4hPa SSE 5.0mph /  8km/h 7.0mph /  11.3km/h 86% 0.00in /  0mm
04:53 71.2 °F /  21.8 °C 66.8 °F /  19.3 °C 29.81in /  1009.4hPa SE 3.0mph /  4.8km/h 6.0mph /  9.7km/h 86% 0.00in /  0mm
04:57 71.1 °F /  21.7 °C 66.7 °F /  19.3 °C 29.81in /  1009.4hPa SSE 7.0mph /  11.3km/h 7.0mph /  11.3km/h 86% 0.00in /  0mm
04:58 71.1 °F /  21.7 °C 67.0 °F /  19.4 °C 29.81in /  1009.4hPa SSE 5.0mph /  8km/h 7.0mph /  11.3km/h 87% 0.00in /  0mm
05:00 71.1 °F /  21.7 °C 67.0 °F /  19.4 °C 29.81in /  1009.4hPa SSE 4.0mph /  6.4km/h 6.0mph /  9.7km/h 87% 0.00in /  0mm
05:03 71.1 °F /  21.7 °C 67.0 °F /  19.4 °C 29.81in /  1009.4hPa SSE 4.0mph /  6.4km/h 8.0mph /  12.9km/h 87% 0.00in /  0mm
05:08 71.1 °F /  21.7 °C 67.0 °F /  19.4 °C 29.81in /  1009.4hPa South 7.0mph /  11.3km/h 8.0mph /  12.9km/h 87% 0.00in /  0mm
05:09 71.1 °F /  21.7 °C 67.0 °F /  19.4 °C 29.81in /  1009.4hPa SSE 5.0mph /  8km/h 8.0mph /  12.9km/h 87% 0.00in /  0mm
05:14 71.0 °F /  21.7 °C 66.9 °F /  19.4 °C 29.81in /  1009.4hPa SSE 6.0mph /  9.7km/h 6.0mph /  9.7km/h 87% 0.00in /  0mm
05:19 70.9 °F /  21.6 °C 66.8 °F /  19.3 °C 29.81in /  1009.4hPa SSE 4.0mph /  6.4km/h 6.0mph /  9.7km/h 87% 0.00in /  0mm
05:24 70.9 °F /  21.6 °C 67.2 °F /  19.6 °C 29.82in /  1009.7hPa SSE 4.0mph /  6.4km/h 5.0mph /  8km/h 88% 0.00in /  0mm
05:29 70.7 °F /  21.5 °C 67.0 °F /  19.4 °C 29.82in /  1009.7hPa SE 6.0mph /  9.7km/h 6.0mph /  9.7km/h 88% 0.00in /  0mm
05:30 70.7 °F /  21.5 °C 67.0 °F /  19.4 °C 29.82in /  1009.7hPa SE 4.0mph /  6.4km/h 6.0mph /  9.7km/h 88% 0.00in /  0mm
05:34 70.6 °F /  21.4 °C 66.9 °F /  19.4 °C 29.81in /  1009.4hPa SSE 4.0mph /  6.4km/h 6.0mph /  9.7km/h 88% 0.00in /  0mm
05:35 70.6 °F /  21.4 °C 66.9 °F /  19.4 °C 29.81in /  1009.4hPa SSE 5.0mph /  8km/h 6.0mph /  9.7km/h 88% 0.00in /  0mm
05:40 70.6 °F /  21.4 °C 66.9 °F /  19.4 °C 29.81in /  1009.4hPa SSW 5.0mph /  8km/h 7.0mph /  11.3km/h 88% 0.00in /  0mm
05:45 70.5 °F /  21.4 °C 67.1 °F /  19.5 °C 29.81in /  1009.4hPa SSE 2.0mph /  3.2km/h 5.0mph /  8km/h 89% 0.00in /  0mm
05:50 70.4 °F /  21.3 °C 67.0 °F /  19.4 °C 29.81in /  1009.4hPa SE 4.0mph /  6.4km/h 6.0mph /  9.7km/h 89% 0.00in /  0mm
05:51 70.4 °F /  21.3 °C 67.0 °F /  19.4 °C 29.81in /  1009.4hPa SE 6.0mph /  9.7km/h 7.0mph /  11.3km/h 89% 0.00in /  0mm
05:55 70.4 °F /  21.3 °C 67.0 °F /  19.4 °C 29.81in /  1009.4hPa SSE 4.0mph /  6.4km/h 7.0mph /  11.3km/h 89% 0.00in /  0mm
05:57 70.4 °F /  21.3 °C 67.0 °F /  19.4 °C 29.81in /  1009.4hPa SE 3.0mph /  4.8km/h 6.0mph /  9.7km/h 89% 0.00in /  0mm
05:58 70.4 °F /  21.3 °C 67.0 °F /  19.4 °C 29.81in /  1009.4hPa SE 4.0mph /  6.4km/h 6.0mph /  9.7km/h 89% 0.00in /  0mm
06:00 70.3 °F /  21.3 °C 66.9 °F /  19.4 °C 29.81in /  1009.4hPa SSE 6.0mph /  9.7km/h 6.0mph /  9.7km/h 89% 0.00in /  0mm
06:02 70.2 °F /  21.2 °C 67.1 °F /  19.5 °C 29.81in /  1009.4hPa SSE 4.0mph /  6.4km/h 6.0mph /  9.7km/h 90% 0.00in /  0mm
06:03 70.2 °F /  21.2 °C 67.1 °F /  19.5 °C 29.81in /  1009.4hPa South 3.0mph /  4.8km/h 6.0mph /  9.7km/h 90% 0.00in /  0mm
06:08 70.1 °F /  21.2 °C 67.0 °F /  19.4 °C 29.81in /  1009.4hPa SE 5.0mph /  8km/h 7.0mph /  11.3km/h 90% 0.00in /  0mm
06:13 70.2 °F /  21.2 °C 67.1 °F /  19.5 °C 29.81in /  1009.4hPa South 3.0mph /  4.8km/h 8.0mph /  12.9km/h 90% 0.00in /  0mm
06:18 70.1 °F /  21.2 °C 67.0 °F /  19.4 °C 29.81in /  1009.4hPa SE 7.0mph /  11.3km/h 7.0mph /  11.3km/h 90% 0.00in /  0mm
06:23 70.0 °F /  21.1 °C 67.3 °F /  19.6 °C 29.81in /  1009.4hPa SSE 4.0mph /  6.4km/h 6.0mph /  9.7km/h 91% 0.00in /  0mm
06:28 69.9 °F /  21.1 °C 67.2 °F /  19.6 °C 29.81in /  1009.4hPa SSE 5.0mph /  8km/h 7.0mph /  11.3km/h 91% 0.00in /  0mm
06:29 69.9 °F /  21.1 °C 67.2 °F /  19.6 °C 29.81in /  1009.4hPa SE 5.0mph /  8km/h 7.0mph /  11.3km/h 91% 0.00in /  0mm
06:30 69.8 °F /  21 °C 67.1 °F /  19.5 °C 29.81in /  1009.4hPa ESE 6.0mph /  9.7km/h 7.0mph /  11.3km/h 91% 0.00in /  0mm
06:33 69.8 °F /  21 °C 67.1 °F /  19.5 °C 29.81in /  1009.4hPa South 5.0mph /  8km/h 7.0mph /  11.3km/h 91% 0.00in /  0mm
06:34 69.8 °F /  21 °C 67.1 °F /  19.5 °C 29.81in /  1009.4hPa South 7.0mph /  11.3km/h 7.0mph /  11.3km/h 91% 0.00in /  0mm
06:36 69.8 °F /  21 °C 67.1 °F /  19.5 °C 29.81in /  1009.4hPa SSE 5.0mph /  8km/h 7.0mph /  11.3km/h 91% 0.00in /  0mm
06:39 69.8 °F /  21 °C 67.1 °F /  19.5 °C 29.81in /  1009.4hPa SSE 6.0mph /  9.7km/h 7.0mph /  11.3km/h 91% 0.00in /  0mm
06:44 69.8 °F /  21 °C 67.4 °F /  19.7 °C 29.81in /  1009.4hPa SSE 4.0mph /  6.4km/h 7.0mph /  11.3km/h 92% 0.00in /  0mm
06:49 69.7 °F /  20.9 °C 67.3 °F /  19.6 °C 29.82in /  1009.7hPa SE 3.0mph /  4.8km/h 6.0mph /  9.7km/h 92% 0.00in /  0mm
06:54 69.6 °F /  20.9 °C 67.2 °F /  19.6 °C 29.82in /  1009.7hPa SSE 4.0mph /  6.4km/h 8.0mph /  12.9km/h 92% 0.00in /  0mm
06:55 69.7 °F /  20.9 °C 67.3 °F /  19.6 °C 29.82in /  1009.7hPa SSE 4.0mph /  6.4km/h 8.0mph /  12.9km/h 92% 0.00in /  0mm
06:58 69.7 °F /  20.9 °C 67.3 °F /  19.6 °C 29.82in /  1009.7hPa SE 3.0mph /  4.8km/h 6.0mph /  9.7km/h 92% 0.00in /  0mm
07:00 69.6 °F /  20.9 °C 67.2 °F /  19.6 °C 29.82in /  1009.7hPa South 7.0mph /  11.3km/h 7.0mph /  11.3km/h 92% 0.00in /  0mm
07:04 69.7 °F /  20.9 °C 67.3 °F /  19.6 °C 29.82in /  1009.7hPa SE 6.0mph /  9.7km/h 8.0mph /  12.9km/h 92% 0.00in /  0mm
07:05 69.7 °F /  20.9 °C 67.3 °F /  19.6 °C 29.82in /  1009.7hPa SSE 4.0mph /  6.4km/h 8.0mph /  12.9km/h 92% 0.00in /  0mm
07:10 69.8 °F /  21 °C 67.4 °F /  19.7 °C 29.82in /  1009.7hPa SE 4.0mph /  6.4km/h 8.0mph /  12.9km/h 92% 0.00in /  0mm
07:15 69.9 °F /  21.1 °C 67.5 °F /  19.7 °C 29.82in /  1009.7hPa SE 6.0mph /  9.7km/h 9.0mph /  14.5km/h 92% 0.00in /  0mm
07:20 70.2 °F /  21.2 °C 67.8 °F /  19.9 °C 29.82in /  1009.7hPa SSE 7.0mph /  11.3km/h 9.0mph /  14.5km/h 92% 0.00in /  0mm
07:25 70.4 °F /  21.3 °C 68.0 °F /  20 °C 29.82in /  1009.7hPa SSE 5.0mph /  8km/h 8.0mph /  12.9km/h 92% 0.00in /  0mm
07:26 70.5 °F /  21.4 °C 68.1 °F /  20.1 °C 29.82in /  1009.7hPa SSE 6.0mph /  9.7km/h 8.0mph /  12.9km/h 92% 0.00in /  0mm
07:30 70.7 °F /  21.5 °C 67.9 °F /  19.9 °C 29.82in /  1009.7hPa SE 5.0mph /  8km/h 9.0mph /  14.5km/h 91% 0.00in /  0mm
07:31 70.7 °F /  21.5 °C 67.9 °F /  19.9 °C 29.82in /  1009.7hPa SSE 4.0mph /  6.4km/h 9.0mph /  14.5km/h 91% 0.00in /  0mm
07:32 70.8 °F /  21.6 °C 68.1 °F /  20.1 °C 29.82in /  1009.7hPa SE 5.0mph /  8km/h 9.0mph /  14.5km/h 91% 0.00in /  0mm
07:36 70.9 °F /  21.6 °C 68.2 °F /  20.1 °C 29.83in /  1010hPa SSE 5.0mph /  8km/h 8.0mph /  12.9km/h 91% 0.00in /  0mm
07:37 70.9 °F /  21.6 °C 68.2 °F /  20.1 °C 29.82in /  1009.7hPa SE 9.0mph /  14.5km/h 9.0mph /  14.5km/h 91% 0.00in /  0mm
07:41 70.9 °F /  21.6 °C 68.2 °F /  20.1 °C 29.82in /  1009.7hPa SSE 5.0mph /  8km/h 7.0mph /  11.3km/h 91% 0.00in /  0mm
07:42 70.9 °F /  21.6 °C 68.2 °F /  20.1 °C 29.82in /  1009.7hPa SE 4.0mph /  6.4km/h 9.0mph /  14.5km/h 91% 0.00in /  0mm
07:47 70.9 °F /  21.6 °C 68.2 °F /  20.1 °C 29.82in /  1009.7hPa SSE 9.0mph /  14.5km/h 9.0mph /  14.5km/h 91% 0.00in /  0mm
07:52 71.0 °F /  21.7 °C 68.6 °F /  20.3 °C 29.82in /  1009.7hPa South 8.0mph /  12.9km/h 9.0mph /  14.5km/h 92% 0.00in /  0mm
07:53 71.0 °F /  21.7 °C 68.6 °F /  20.3 °C 29.82in /  1009.7hPa South 6.0mph /  9.7km/h 9.0mph /  14.5km/h 92% 0.00in /  0mm
07:54 71.0 °F /  21.7 °C 68.6 °F /  20.3 °C 29.82in /  1009.7hPa South 8.0mph /  12.9km/h 9.0mph /  14.5km/h 92% 0.00in /  0mm
07:58 71.0 °F /  21.7 °C 68.6 °F /  20.3 °C 29.82in /  1009.7hPa SSW 8.0mph /  12.9km/h 10.0mph /  16.1km/h 92% 0.00in /  0mm
08:00 71.1 °F /  21.7 °C 68.7 °F /  20.4 °C 29.82in /  1009.7hPa SSE 8.0mph /  12.9km/h 9.0mph /  14.5km/h 92% 0.00in /  0mm
08:03 71.1 °F /  21.7 °C 68.7 °F /  20.4 °C 29.82in /  1009.7hPa SE 8.0mph /  12.9km/h 11.0mph /  17.7km/h 92% 0.00in /  0mm
08:08 71.2 °F /  21.8 °C 68.8 °F /  20.4 °C 29.82in /  1009.7hPa SSE 6.0mph /  9.7km/h 12.0mph /  19.3km/h 92% 0.00in /  0mm
08:13 71.3 °F /  21.8 °C 68.5 °F /  20.3 °C 29.81in /  1009.4hPa SE 9.0mph /  14.5km/h 10.0mph /  16.1km/h 91% 0.00in /  0mm
08:18 71.4 °F /  21.9 °C 69.0 °F /  20.6 °C 29.80in /  1009hPa SSE 8.0mph /  12.9km/h 12.0mph /  19.3km/h 92% 0.00in /  0mm
08:23 71.5 °F /  21.9 °C 68.7 °F /  20.4 °C 29.81in /  1009.4hPa SSE 9.0mph /  14.5km/h 13.0mph /  20.9km/h 91% 0.00in /  0mm
08:28 71.5 °F /  21.9 °C 68.7 °F /  20.4 °C 29.81in /  1009.4hPa SSE 6.0mph /  9.7km/h 15.0mph /  24.1km/h 91% 0.00in /  0mm
08:29 71.5 °F /  21.9 °C 68.7 °F /  20.4 °C 29.81in /  1009.4hPa SSE 8.0mph /  12.9km/h 13.0mph /  20.9km/h 91% 0.00in /  0mm
08:30 71.5 °F /  21.9 °C 68.7 °F /  20.4 °C 29.81in /  1009.4hPa SE 10.0mph /  16.1km/h 13.0mph /  20.9km/h 91% 0.00in /  0mm
08:33 71.6 °F /  22 °C 68.8 °F /  20.4 °C 29.81in /  1009.4hPa SSE 6.0mph /  9.7km/h 11.0mph /  17.7km/h 91% 0.00in /  0mm
08:34 71.6 °F /  22 °C 68.8 °F /  20.4 °C 29.81in /  1009.4hPa SSE 6.0mph /  9.7km/h 11.0mph /  17.7km/h 91% 0.00in /  0mm
08:35 71.6 °F /  22 °C 68.8 °F /  20.4 °C 29.81in /  1009.4hPa South 9.0mph /  14.5km/h 11.0mph /  17.7km/h 91% 0.00in /  0mm
08:36 71.6 °F /  22 °C 68.8 °F /  20.4 °C 29.81in /  1009.4hPa SSE 9.0mph /  14.5km/h 18.0mph /  29km/h 91% 0.00in /  0mm
08:41 71.7 °F /  22.1 °C 68.9 °F /  20.5 °C 29.81in /  1009.4hPa SSE 10.0mph /  16.1km/h 13.0mph /  20.9km/h 91% 0.00in /  0mm
08:46 71.7 °F /  22.1 °C 68.9 °F /  20.5 °C 29.81in /  1009.4hPa SE 10.0mph /  16.1km/h 15.0mph /  24.1km/h 91% 0.00in /  0mm
08:51 71.8 °F /  22.1 °C 68.7 °F /  20.4 °C 29.81in /  1009.4hPa South 11.0mph /  17.7km/h 15.0mph /  24.1km/h 90% 0.00in /  0mm
08:56 71.9 °F /  22.2 °C 68.8 °F /  20.4 °C 29.80in /  1009hPa SE 7.0mph /  11.3km/h 11.0mph /  17.7km/h 90% 0.00in /  0mm
08:57 72.0 °F /  22.2 °C 68.9 °F /  20.5 °C 29.80in /  1009hPa SSE 5.0mph /  8km/h 16.0mph /  25.7km/h 90% 0.00in /  0mm
08:58 72.1 °F /  22.3 °C 69.0 °F /  20.6 °C 29.80in /  1009hPa SE 11.0mph /  17.7km/h 16.0mph /  25.7km/h 90% 0.00in /  0mm
09:00 72.3 °F /  22.4 °C 69.2 °F /  20.7 °C 29.81in /  1009.4hPa South 6.0mph /  9.7km/h 13.0mph /  20.9km/h 90% 0.00in /  0mm
09:02 72.4 °F /  22.4 °C 69.3 °F /  20.7 °C 29.81in /  1009.4hPa South 5.0mph /  8km/h 13.0mph /  20.9km/h 90% 0.00in /  0mm
09:07 72.6 °F /  22.6 °C 69.2 °F /  20.7 °C 29.81in /  1009.4hPa SSE 11.0mph /  17.7km/h 13.0mph /  20.9km/h 89% 0.00in /  0mm
09:12 72.6 °F /  22.6 °C 69.2 °F /  20.7 °C 29.81in /  1009.4hPa SSE 9.0mph /  14.5km/h 14.0mph /  22.5km/h 89% 0.00in /  0mm
09:17 72.6 °F /  22.6 °C 68.8 °F /  20.4 °C 29.81in /  1009.4hPa SSE 14.0mph /  22.5km/h 14.0mph /  22.5km/h 88% 0.00in /  0mm
09:22 72.7 °F /  22.6 °C 68.9 °F /  20.5 °C 29.81in /  1009.4hPa South 7.0mph /  11.3km/h 15.0mph /  24.1km/h 88% 0.00in /  0mm
09:27 73.0 °F /  22.8 °C 68.9 °F /  20.5 °C 29.81in /  1009.4hPa SSE 7.0mph /  11.3km/h 13.0mph /  20.9km/h 87% 0.00in /  0mm
09:28 73.0 °F /  22.8 °C 68.9 °F /  20.5 °C 29.81in /  1009.4hPa SSE 7.0mph /  11.3km/h 13.0mph /  20.9km/h 87% 0.00in /  0mm
09:30 73.1 °F /  22.8 °C 69.0 °F /  20.6 °C 29.81in /  1009.4hPa SE 6.0mph /  9.7km/h 20.0mph /  32.2km/h 87% 0.00in /  0mm
09:33 73.3 °F /  22.9 °C 69.2 °F /  20.7 °C 29.82in /  1009.7hPa SSE 6.0mph /  9.7km/h 13.0mph /  20.9km/h 87% 0.00in /  0mm
09:34 73.4 °F /  23 °C 69.3 °F /  20.7 °C 29.81in /  1009.4hPa SE 9.0mph /  14.5km/h 12.0mph /  19.3km/h 87% 0.00in /  0mm
09:36 73.6 °F /  23.1 °C 69.5 °F /  20.8 °C 29.82in /  1009.7hPa South 12.0mph /  19.3km/h 14.0mph /  22.5km/h 87% 0.00in /  0mm
09:41 74.0 °F /  23.3 °C 69.6 °F /  20.9 °C 29.82in /  1009.7hPa SSW 6.0mph /  9.7km/h 13.0mph /  20.9km/h 86% 0.00in /  0mm
09:46 74.1 °F /  23.4 °C 69.0 °F /  20.6 °C 29.82in /  1009.7hPa South 12.0mph /  19.3km/h 20.0mph /  32.2km/h 84% 0.00in /  0mm
09:51 74.3 °F /  23.5 °C 69.2 °F /  20.7 °C 29.81in /  1009.4hPa SE 11.0mph /  17.7km/h 16.0mph /  25.7km/h 84% 0.00in /  0mm
09:52 74.4 °F /  23.6 °C 69.3 °F /  20.7 °C 29.82in /  1009.7hPa SSE 11.0mph /  17.7km/h 16.0mph /  25.7km/h 84% 0.00in /  0mm
09:56 74.6 °F /  23.7 °C 69.1 °F /  20.6 °C 29.81in /  1009.4hPa SSW 12.0mph /  19.3km/h 14.0mph /  22.5km/h 83% 0.00in /  0mm
09:57 74.6 °F /  23.7 °C 69.1 °F /  20.6 °C 29.81in /  1009.4hPa SSE 9.0mph /  14.5km/h 14.0mph /  22.5km/h 83% 0.00in /  0mm
09:58 74.7 °F /  23.7 °C 69.2 °F /  20.7 °C 29.82in /  1009.7hPa SSW 11.0mph /  17.7km/h 16.0mph /  25.7km/h 83% 0.00in /  0mm
10:00 74.9 °F /  23.8 °C 69.4 °F /  20.8 °C 29.81in /  1009.4hPa SE 15.0mph /  24.1km/h 16.0mph /  25.7km/h 83% 0.00in /  0mm
10:02 75.1 °F /  23.9 °C 69.2 °F /  20.7 °C 29.82in /  1009.7hPa SSE 13.0mph /  20.9km/h 15.0mph /  24.1km/h 82% 0.00in /  0mm
10:07 75.3 °F /  24.1 °C 69.1 °F /  20.6 °C 29.82in /  1009.7hPa South 7.0mph /  11.3km/h 15.0mph /  24.1km/h 81% 0.00in /  0mm
10:08 75.3 °F /  24.1 °C 69.1 °F /  20.6 °C 29.82in /  1009.7hPa South 7.0mph /  11.3km/h 15.0mph /  24.1km/h 81% 0.00in /  0mm
10:13 75.5 °F /  24.2 °C 69.3 °F /  20.7 °C 29.82in /  1009.7hPa South 7.0mph /  11.3km/h 15.0mph /  24.1km/h 81% 0.00in /  0mm
10:18 75.6 °F /  24.2 °C 69.0 °F /  20.6 °C 29.82in /  1009.7hPa SSE 9.0mph /  14.5km/h 13.0mph /  20.9km/h 80% 0.00in /  0mm
10:23 75.8 °F /  24.3 °C 69.2 °F /  20.7 °C 29.81in /  1009.4hPa SW 7.0mph /  11.3km/h 15.0mph /  24.1km/h 80% 0.00in /  0mm
10:28 76.0 °F /  24.4 °C 69.4 °F /  20.8 °C 29.82in /  1009.7hPa South 10.0mph /  16.1km/h 14.0mph /  22.5km/h 80% 0.00in /  0mm
10:29 76.0 °F /  24.4 °C 69.4 °F /  20.8 °C 29.82in /  1009.7hPa SE 9.0mph /  14.5km/h 14.0mph /  22.5km/h 80% 0.00in /  0mm
10:30 75.9 °F /  24.4 °C 69.3 °F /  20.7 °C 29.82in /  1009.7hPa SSW 9.0mph /  14.5km/h 14.0mph /  22.5km/h 80% 0.00in /  0mm
10:33 76.1 °F /  24.5 °C 69.5 °F /  20.8 °C 29.82in /  1009.7hPa SE 7.0mph /  11.3km/h 12.0mph /  19.3km/h 80% 0.00in /  0mm
10:34 76.2 °F /  24.6 °C 69.6 °F /  20.9 °C 29.81in /  1009.4hPa SW 7.0mph /  11.3km/h 12.0mph /  19.3km/h 80% 0.00in /  0mm
10:36 76.3 °F /  24.6 °C 69.7 °F /  20.9 °C 29.81in /  1009.4hPa SSE 14.0mph /  22.5km/h 14.0mph /  22.5km/h 80% 0.00in /  0mm
10:39 76.5 °F /  24.7 °C 68.8 °F /  20.4 °C 29.82in /  1009.7hPa SSE 9.0mph /  14.5km/h 16.0mph /  25.7km/h 77% 0.00in /  0mm
10:41 76.5 °F /  24.7 °C 69.1 °F /  20.6 °C 29.83in /  1010hPa SSE 8.0mph /  12.9km/h 18.0mph /  29km/h 78% 0.00in /  0mm
10:46 76.9 °F /  24.9 °C 69.9 °F /  21.1 °C 29.81in /  1009.4hPa SE 8.0mph /  12.9km/h 9.0mph /  14.5km/h 79% 0.00in /  0mm
10:51 77.5 °F /  25.3 °C 69.7 °F /  20.9 °C 29.82in /  1009.7hPa SSE 12.0mph /  19.3km/h 15.0mph /  24.1km/h 77% 0.00in /  0mm
10:53 77.7 °F /  25.4 °C 69.5 °F /  20.8 °C 29.81in /  1009.4hPa SE 9.0mph /  14.5km/h 15.0mph /  24.1km/h 76% 0.00in /  0mm
10:56 77.7 °F /  25.4 °C 69.2 °F /  20.7 °C 29.82in /  1009.7hPa SE 6.0mph /  9.7km/h 15.0mph /  24.1km/h 75% 0.00in /  0mm
10:58 77.5 °F /  25.3 °C 69.3 °F /  20.7 °C 29.82in /  1009.7hPa SSW 7.0mph /  11.3km/h 14.0mph /  22.5km/h 76% 0.00in /  0mm
11:00 77.1 °F /  25.1 °C 69.0 °F /  20.6 °C 29.81in /  1009.4hPa South 8.0mph /  12.9km/h 12.0mph /  19.3km/h 76% 0.00in /  0mm
11:03 77.2 °F /  25.1 °C 69.4 °F /  20.8 °C 29.81in /  1009.4hPa SSW 7.0mph /  11.3km/h 12.0mph /  19.3km/h 77% 0.00in /  0mm
11:08 77.3 °F /  25.2 °C 69.5 °F /  20.8 °C 29.81in /  1009.4hPa SSE 10.0mph /  16.1km/h 13.0mph /  20.9km/h 77% 0.00in /  0mm
11:09 77.4 °F /  25.2 °C 69.6 °F /  20.9 °C 29.81in /  1009.4hPa SSW 6.0mph /  9.7km/h 13.0mph /  20.9km/h 77% 0.00in /  0mm
11:14 78.0 °F /  25.6 °C 69.8 °F /  21 °C 29.81in /  1009.4hPa SSE 7.0mph /  11.3km/h 9.0mph /  14.5km/h 76% 0.00in /  0mm
11:19 77.7 °F /  25.4 °C 69.2 °F /  20.7 °C 29.81in /  1009.4hPa SSW 7.0mph /  11.3km/h 16.0mph /  25.7km/h 75% 0.00in /  0mm
11:24 77.5 °F /  25.3 °C 69.7 °F /  20.9 °C 29.81in /  1009.4hPa South 7.0mph /  11.3km/h 13.0mph /  20.9km/h 77% 0.00in /  0mm
11:29 77.2 °F /  25.1 °C 69.1 °F /  20.6 °C 29.81in /  1009.4hPa SSW 6.0mph /  9.7km/h 14.0mph /  22.5km/h 76% 0.00in /  0mm
11:30 77.2 °F /  25.1 °C 69.4 °F /  20.8 °C 29.81in /  1009.4hPa SSE 10.0mph /  16.1km/h 12.0mph /  19.3km/h 77% 0.00in /  0mm
11:32 77.2 °F /  25.1 °C 69.4 °F /  20.8 °C 29.81in /  1009.4hPa SW 7.0mph /  11.3km/h 12.0mph /  19.3km/h 77% 0.00in /  0mm
11:33 77.2 °F /  25.1 °C 69.4 °F /  20.8 °C 29.81in /  1009.4hPa SSE 8.0mph /  12.9km/h 12.0mph /  19.3km/h 77% 0.00in /  0mm
11:37 77.4 °F /  25.2 °C 70.0 °F /  21.1 °C 29.81in /  1009.4hPa SW 6.0mph /  9.7km/h 8.0mph /  12.9km/h 78% 0.00in /  0mm
11:42 78.4 °F /  25.8 °C 71.0 °F /  21.7 °C 29.80in /  1009hPa SSW 9.0mph /  14.5km/h 13.0mph /  20.9km/h 78% 0.00in /  0mm
11:47 78.9 °F /  26.1 °C 69.5 °F /  20.8 °C 29.80in /  1009hPa South 6.0mph /  9.7km/h 11.0mph /  17.7km/h 73% 0.00in /  0mm
11:48 79.0 °F /  26.1 °C 70.0 °F /  21.1 °C 29.80in /  1009hPa South 5.0mph /  8km/h 11.0mph /  17.7km/h 74% 0.00in /  0mm
11:53 79.2 °F /  26.2 °C 69.4 °F /  20.8 °C 29.80in /  1009hPa SSW 9.0mph /  14.5km/h 16.0mph /  25.7km/h 72% 0.00in /  0mm
11:58 79.7 °F /  26.5 °C 70.7 °F /  21.5 °C 29.80in /  1009hPa SE 7.0mph /  11.3km/h 13.0mph /  20.9km/h 74% 0.00in /  0mm
11:59 79.8 °F /  26.6 °C 70.8 °F /  21.6 °C 29.80in /  1009hPa SSE 13.0mph /  20.9km/h 13.0mph /  20.9km/h 74% 0.00in /  0mm
12:00 79.9 °F /  26.6 °C 70.5 °F /  21.4 °C 29.80in /  1009hPa SW 9.0mph /  14.5km/h 14.0mph /  22.5km/h 73% 0.00in /  0mm
12:04 80.1 °F /  26.7 °C 70.3 °F /  21.3 °C 29.80in /  1009hPa South 11.0mph /  17.7km/h 17.0mph /  27.4km/h 72% 0.00in /  0mm
12:09 79.9 °F /  26.6 °C 69.7 °F /  20.9 °C 29.80in /  1009hPa South 9.0mph /  14.5km/h 15.0mph /  24.1km/h 71% 0.00in /  0mm
12:14 79.7 °F /  26.5 °C 69.5 °F /  20.8 °C 29.80in /  1009hPa SSE 6.0mph /  9.7km/h 14.0mph /  22.5km/h 71% 0.00in /  0mm
12:19 79.5 °F /  26.4 °C 69.7 °F /  20.9 °C 29.80in /  1009hPa SSE 10.0mph /  16.1km/h 12.0mph /  19.3km/h 72% 0.00in /  0mm
12:24 80.0 °F /  26.7 °C 69.8 °F /  21 °C 29.80in /  1009hPa SSW 11.0mph /  17.7km/h 15.0mph /  24.1km/h 71% 0.00in /  0mm
12:29 80.1 °F /  26.7 °C 69.4 °F /  20.8 °C 29.79in /  1008.7hPa SSE 9.0mph /  14.5km/h 20.0mph /  32.2km/h 70% 0.00in /  0mm
12:30 80.1 °F /  26.7 °C 69.4 °F /  20.8 °C 29.79in /  1008.7hPa SSE 9.0mph /  14.5km/h 20.0mph /  32.2km/h 70% 0.00in /  0mm
12:31 80.0 °F /  26.7 °C 69.8 °F /  21 °C 29.79in /  1008.7hPa SSW 6.0mph /  9.7km/h 15.0mph /  24.1km/h 71% 0.00in /  0mm
12:35 80.2 °F /  26.8 °C 71.2 °F /  21.8 °C 29.79in /  1008.7hPa SSE 12.0mph /  19.3km/h 14.0mph /  22.5km/h 74% 0.00in /  0mm
12:37 80.3 °F /  26.8 °C 69.6 °F /  20.9 °C 29.79in /  1008.7hPa SSE 15.0mph /  24.1km/h 20.0mph /  32.2km/h 70% 0.00in /  0mm
12:42 80.7 °F /  27.1 °C 70.0 °F /  21.1 °C 29.79in /  1008.7hPa SE 10.0mph /  16.1km/h 16.0mph /  25.7km/h 70% 0.00in /  0mm
12:47 81.1 °F /  27.3 °C 70.4 °F /  21.3 °C 29.79in /  1008.7hPa SSW 7.0mph /  11.3km/h 14.0mph /  22.5km/h 70% 0.00in /  0mm
12:52 81.3 °F /  27.4 °C 71.0 °F /  21.7 °C 29.78in /  1008.4hPa SSE 12.0mph /  19.3km/h 15.0mph /  24.1km/h 71% 0.00in /  0mm
12:56 81.0 °F /  27.2 °C 69.9 °F /  21.1 °C 29.78in /  1008.4hPa SSE 10.0mph /  16.1km/h 18.0mph /  29km/h 69% 0.00in /  0mm
12:57 81.1 °F /  27.3 °C 70.0 °F /  21.1 °C 29.78in /  1008.4hPa SSE 12.0mph /  19.3km/h 15.0mph /  24.1km/h 69% 0.00in /  0mm
13:00 81.3 °F /  27.4 °C 69.3 °F /  20.7 °C 29.79in /  1008.7hPa SSE 13.0mph /  20.9km/h 16.0mph /  25.7km/h 67% 0.00in /  0mm
13:02 81.4 °F /  27.4 °C 69.4 °F /  20.8 °C 29.78in /  1008.4hPa South 12.0mph /  19.3km/h 18.0mph /  29km/h 67% 0.00in /  0mm
13:03 81.4 °F /  27.4 °C 69.8 °F /  21 °C 29.78in /  1008.4hPa South 8.0mph /  12.9km/h 18.0mph /  29km/h 68% 0.00in /  0mm
13:08 82.2 °F /  27.9 °C 69.3 °F /  20.7 °C 29.79in /  1008.7hPa South 12.0mph /  19.3km/h 17.0mph /  27.4km/h 65% 0.00in /  0mm
13:13 82.0 °F /  27.8 °C 70.0 °F /  21.1 °C 29.78in /  1008.4hPa SE 8.0mph /  12.9km/h 12.0mph /  19.3km/h 67% 0.00in /  0mm
13:18 82.3 °F /  27.9 °C 69.4 °F /  20.8 °C 29.78in /  1008.4hPa South 14.0mph /  22.5km/h 17.0mph /  27.4km/h 65% 0.00in /  0mm
13:23 82.4 °F /  28 °C 70.3 °F /  21.3 °C 29.78in /  1008.4hPa SSE 10.0mph /  16.1km/h 16.0mph /  25.7km/h 67% 0.00in /  0mm
13:28 83.0 °F /  28.3 °C 70.9 °F /  21.6 °C 29.78in /  1008.4hPa SSE 8.0mph /  12.9km/h 11.0mph /  17.7km/h 67% 0.00in /  0mm
13:30 83.0 °F /  28.3 °C 70.0 °F /  21.1 °C 29.78in /  1008.4hPa SSE 6.0mph /  9.7km/h 12.0mph /  19.3km/h 65% 0.00in /  0mm
13:31 82.8 °F /  28.2 °C 69.8 °F /  21 °C 29.78in /  1008.4hPa SE 11.0mph /  17.7km/h 14.0mph /  22.5km/h 65% 0.00in /  0mm
13:33 82.2 °F /  27.9 °C 69.3 °F /  20.7 °C 29.78in /  1008.4hPa SE 10.0mph /  16.1km/h 20.0mph /  32.2km/h 65% 0.00in /  0mm
13:34 82.1 °F /  27.8 °C 69.2 °F /  20.7 °C 29.78in /  1008.4hPa SSE 13.0mph /  20.9km/h 20.0mph /  32.2km/h 65% 0.00in /  0mm
13:37 81.8 °F /  27.7 °C 69.3 °F /  20.7 °C 29.78in /  1008.4hPa SE 12.0mph /  19.3km/h 18.0mph /  29km/h 66% 0.00in /  0mm
13:40 81.7 °F /  27.6 °C 69.7 °F /  20.9 °C 29.78in /  1008.4hPa South 7.0mph /  11.3km/h 17.0mph /  27.4km/h 67% 0.00in /  0mm
13:44 82.8 °F /  28.2 °C 71.2 °F /  21.8 °C 29.78in /  1008.4hPa SSE 8.0mph /  12.9km/h 12.0mph /  19.3km/h 68% 0.00in /  0mm
13:45 82.8 °F /  28.2 °C 71.2 °F /  21.8 °C 29.78in /  1008.4hPa South 9.0mph /  14.5km/h 12.0mph /  19.3km/h 68% 0.00in /  0mm
13:50 83.1 °F /  28.4 °C 71.0 °F /  21.7 °C 29.78in /  1008.4hPa SSE 5.0mph /  8km/h 16.0mph /  25.7km/h 67% 0.00in /  0mm
13:55 83.5 °F /  28.6 °C 70.1 °F /  21.2 °C 29.77in /  1008hPa South 12.0mph /  19.3km/h 17.0mph /  27.4km/h 64% 0.00in /  0mm
13:58 83.0 °F /  28.3 °C 69.6 °F /  20.9 °C 29.77in /  1008hPa South 8.0mph /  12.9km/h 17.0mph /  27.4km/h 64% 0.00in /  0mm
14:00 83.0 °F /  28.3 °C 70.0 °F /  21.1 °C 29.78in /  1008.4hPa SSE 14.0mph /  22.5km/h 15.0mph /  24.1km/h 65% 0.00in /  0mm
14:01 83.0 °F /  28.3 °C 70.0 °F /  21.1 °C 29.78in /  1008.4hPa SE 11.0mph /  17.7km/h 15.0mph /  24.1km/h 65% 0.00in /  0mm
14:03 82.9 °F /  28.3 °C 69.9 °F /  21.1 °C 29.77in /  1008hPa SSE 9.0mph /  14.5km/h 15.0mph /  24.1km/h 65% 0.00in /  0mm
14:08 83.0 °F /  28.3 °C 69.6 °F /  20.9 °C 29.78in /  1008.4hPa SE 10.0mph /  16.1km/h 20.0mph /  32.2km/h 64% 0.00in /  0mm
14:10 82.8 °F /  28.2 °C 69.4 °F /  20.8 °C 29.77in /  1008hPa SE 9.0mph /  14.5km/h 17.0mph /  27.4km/h 64% 0.00in /  0mm
14:15 83.0 °F /  28.3 °C 70.0 °F /  21.1 °C 29.77in /  1008hPa SSW 13.0mph /  20.9km/h 16.0mph /  25.7km/h 65% 0.00in /  0mm
14:20 83.5 °F /  28.6 °C 69.1 °F /  20.6 °C 29.77in /  1008hPa SSE 7.0mph /  11.3km/h 15.0mph /  24.1km/h 62% 0.00in /  0mm
14:25 83.3 °F /  28.5 °C 70.3 °F /  21.3 °C 29.76in /  1007.7hPa SSW 7.0mph /  11.3km/h 15.0mph /  24.1km/h 65% 0.00in /  0mm
14:30 83.5 °F /  28.6 °C 69.6 °F /  20.9 °C 29.76in /  1007.7hPa SW 7.0mph /  11.3km/h 14.0mph /  22.5km/h 63% 0.00in /  0mm
14:35 83.5 °F /  28.6 °C 69.6 °F /  20.9 °C 29.76in /  1007.7hPa SE 8.0mph /  12.9km/h 17.0mph /  27.4km/h 63% 0.00in /  0mm
14:37 83.4 °F /  28.6 °C 69.5 °F /  20.8 °C 29.76in /  1007.7hPa SW 10.0mph /  16.1km/h 16.0mph /  25.7km/h 63% 0.00in /  0mm
14:40 83.7 °F /  28.7 °C 69.8 °F /  21 °C 29.76in /  1007.7hPa South 17.0mph /  27.4km/h 17.0mph /  27.4km/h 63% 0.00in /  0mm
14:45 83.3 °F /  28.5 °C 69.9 °F /  21.1 °C 29.76in /  1007.7hPa SSE 13.0mph /  20.9km/h 15.0mph /  24.1km/h 64% 0.00in /  0mm
14:50 83.0 °F /  28.3 °C 70.0 °F /  21.1 °C 29.76in /  1007.7hPa SE 15.0mph /  24.1km/h 22.0mph /  35.4km/h 65% 0.00in /  0mm
14:51 83.0 °F /  28.3 °C 70.0 °F /  21.1 °C 29.76in /  1007.7hPa ESE 10.0mph /  16.1km/h 22.0mph /  35.4km/h 65% 0.00in /  0mm
14:56 83.8 °F /  28.8 °C 70.3 °F /  21.3 °C 29.76in /  1007.7hPa SSE 7.0mph /  11.3km/h 12.0mph /  19.3km/h 64% 0.00in /  0mm
14:58 83.9 °F /  28.8 °C 70.0 °F /  21.1 °C 29.76in /  1007.7hPa SSE 10.0mph /  16.1km/h 17.0mph /  27.4km/h 63% 0.00in /  0mm
15:00 83.5 °F /  28.6 °C 69.6 °F /  20.9 °C 29.76in /  1007.7hPa SW 14.0mph /  22.5km/h 17.0mph /  27.4km/h 63% 0.00in /  0mm
15:01 83.5 °F /  28.6 °C 69.6 °F /  20.9 °C 29.76in /  1007.7hPa South 12.0mph /  19.3km/h 17.0mph /  27.4km/h 63% 0.00in /  0mm
15:06 83.3 °F /  28.5 °C 69.9 °F /  21.1 °C 29.76in /  1007.7hPa SSE 16.0mph /  25.7km/h 16.0mph /  25.7km/h 64% 0.00in /  0mm
15:11 84.3 °F /  29.1 °C 70.3 °F /  21.3 °C 29.75in /  1007.3hPa SE 8.0mph /  12.9km/h 10.0mph /  16.1km/h 63% 0.00in /  0mm
15:16 85.1 °F /  29.5 °C 70.6 °F /  21.4 °C 29.76in /  1007.7hPa SSE 11.0mph /  17.7km/h 13.0mph /  20.9km/h 62% 0.00in /  0mm
15:21 84.4 °F /  29.1 °C 69.5 °F /  20.8 °C 29.75in /  1007.3hPa SSE 11.0mph /  17.7km/h 14.0mph /  22.5km/h 61% 0.00in /  0mm
15:26 84.0 °F /  28.9 °C 70.1 °F /  21.2 °C 29.76in /  1007.7hPa South 8.0mph /  12.9km/h 17.0mph /  27.4km/h 63% 0.00in /  0mm
15:27 83.9 °F /  28.8 °C 69.0 °F /  20.6 °C 29.75in /  1007.3hPa SSE 8.0mph /  12.9km/h 17.0mph /  27.4km/h 61% 0.00in /  0mm
15:30 84.1 °F /  28.9 °C 68.7 °F /  20.4 °C 29.75in /  1007.3hPa South 14.0mph /  22.5km/h 18.0mph /  29km/h 60% 0.00in /  0mm
15:31 84.1 °F /  28.9 °C 69.2 °F /  20.7 °C 29.75in /  1007.3hPa SE 7.0mph /  11.3km/h 18.0mph /  29km/h 61% 0.00in /  0mm
15:32 84.1 °F /  28.9 °C 69.2 °F /  20.7 °C 29.75in /  1007.3hPa SSE 12.0mph /  19.3km/h 18.0mph /  29km/h 61% 0.00in /  0mm
15:33 84.0 °F /  28.9 °C 68.6 °F /  20.3 °C 29.75in /  1007.3hPa SSE 11.0mph /  17.7km/h 19.0mph /  30.6km/h 60% 0.00in /  0mm
15:38 83.7 °F /  28.7 °C 69.8 °F /  21 °C 29.75in /  1007.3hPa SSE 7.0mph /  11.3km/h 13.0mph /  20.9km/h 63% 0.00in /  0mm
15:43 84.4 °F /  29.1 °C 70.4 °F /  21.3 °C 29.75in /  1007.3hPa South 11.0mph /  17.7km/h 14.0mph /  22.5km/h 63% 0.00in /  0mm
15:48 83.9 °F /  28.8 °C 70.0 °F /  21.1 °C 29.74in /  1007hPa South 5.0mph /  8km/h 15.0mph /  24.1km/h 63% 0.00in /  0mm
15:53 84.5 °F /  29.2 °C 70.1 °F /  21.2 °C 29.75in /  1007.3hPa South 14.0mph /  22.5km/h 14.0mph /  22.5km/h 62% 0.00in /  0mm
15:54 84.6 °F /  29.2 °C 69.2 °F /  20.7 °C 29.75in /  1007.3hPa SE 10.0mph /  16.1km/h 14.0mph /  22.5km/h 60% 0.00in /  0mm
15:55 84.7 °F /  29.3 °C 70.2 °F /  21.2 °C 29.75in /  1007.3hPa SE 19.0mph /  30.6km/h 19.0mph /  30.6km/h 62% 0.00in /  0mm
15:59 84.5 °F /  29.2 °C 69.6 °F /  20.9 °C 29.74in /  1007hPa SSE 8.0mph /  12.9km/h 17.0mph /  27.4km/h 61% 0.00in /  0mm
16:00 84.5 °F /  29.2 °C 69.6 °F /  20.9 °C 29.74in /  1007hPa ESE 10.0mph /  16.1km/h 17.0mph /  27.4km/h 61% 0.00in /  0mm
16:04 84.3 °F /  29.1 °C 69.9 °F /  21.1 °C 29.74in /  1007hPa SSE 11.0mph /  17.7km/h 17.0mph /  27.4km/h 62% 0.00in /  0mm
16:09 84.8 °F /  29.3 °C 69.4 °F /  20.8 °C 29.74in /  1007hPa SSE 14.0mph /  22.5km/h 15.0mph /  24.1km/h 60% 0.00in /  0mm
16:14 84.4 °F /  29.1 °C 69.5 °F /  20.8 °C 29.73in /  1006.7hPa SE 19.0mph /  30.6km/h 23.0mph /  37km/h 61% 0.00in /  0mm
16:19 84.1 °F /  28.9 °C 69.2 °F /  20.7 °C 29.73in /  1006.7hPa South 13.0mph /  20.9km/h 22.0mph /  35.4km/h 61% 0.00in /  0mm
16:24 83.7 °F /  28.7 °C 69.3 °F /  20.7 °C 29.73in /  1006.7hPa South 13.0mph /  20.9km/h 20.0mph /  32.2km/h 62% 0.00in /  0mm
16:29 83.7 °F /  28.7 °C 69.8 °F /  21 °C 29.73in /  1006.7hPa SE 7.0mph /  11.3km/h 20.0mph /  32.2km/h 63% 0.00in /  0mm
16:30 83.8 °F /  28.8 °C 69.9 °F /  21.1 °C 29.72in /  1006.3hPa SSE 12.0mph /  19.3km/h 20.0mph /  32.2km/h 63% 0.00in /  0mm
16:34 84.0 °F /  28.9 °C 69.1 °F /  20.6 °C 29.73in /  1006.7hPa SSE 14.0mph /  22.5km/h 18.0mph /  29km/h 61% 0.00in /  0mm
16:35 84.0 °F /  28.9 °C 69.6 °F /  20.9 °C 29.73in /  1006.7hPa SE 13.0mph /  20.9km/h 18.0mph /  29km/h 62% 0.00in /  0mm
16:36 83.9 °F /  28.8 °C 68.5 °F /  20.3 °C 29.73in /  1006.7hPa SSE 20.0mph /  32.2km/h 20.0mph /  32.2km/h 60% 0.00in /  0mm
16:40 83.8 °F /  28.8 °C 68.9 °F /  20.5 °C 29.72in /  1006.3hPa SSW 10.0mph /  16.1km/h 16.0mph /  25.7km/h 61% 0.00in /  0mm
16:45 83.9 °F /  28.8 °C 68.5 °F /  20.3 °C 29.72in /  1006.3hPa SW 12.0mph /  19.3km/h 24.0mph /  38.6km/h 60% 0.00in /  0mm
16:46 83.9 °F /  28.8 °C 68.5 °F /  20.3 °C 29.73in /  1006.7hPa SSE 14.0mph /  22.5km/h 24.0mph /  38.6km/h 60% 0.00in /  0mm
16:50 84.5 °F /  29.2 °C 69.6 °F /  20.9 °C 29.73in /  1006.7hPa South 12.0mph /  19.3km/h 23.0mph /  37km/h 61% 0.00in /  0mm
16:51 84.5 °F /  29.2 °C 69.1 °F /  20.6 °C 29.73in /  1006.7hPa SE 17.0mph /  27.4km/h 23.0mph /  37km/h 60% 0.00in /  0mm
16:52 84.6 °F /  29.2 °C 68.7 °F /  20.4 °C 29.72in /  1006.3hPa SSE 7.0mph /  11.3km/h 23.0mph /  37km/h 59% 0.00in /  0mm
16:55 84.7 °F /  29.3 °C 69.8 °F /  21 °C 29.72in /  1006.3hPa South 10.0mph /  16.1km/h 15.0mph /  24.1km/h 61% 0.00in /  0mm
16:56 84.7 °F /  29.3 °C 68.8 °F /  20.4 °C 29.71in /  1006hPa South 10.0mph /  16.1km/h 15.0mph /  24.1km/h 59% 0.00in /  0mm
17:00 85.1 °F /  29.5 °C 71.1 °F /  21.7 °C 29.71in /  1006hPa South 4.0mph /  6.4km/h 12.0mph /  19.3km/h 63% 0.00in /  0mm
17:01 85.1 °F /  29.5 °C 71.1 °F /  21.7 °C 29.71in /  1006hPa SSE 4.0mph /  6.4km/h 12.0mph /  19.3km/h 63% 0.00in /  0mm
17:06 85.6 °F /  29.8 °C 70.1 °F /  21.2 °C 29.71in /  1006hPa SE 12.0mph /  19.3km/h 18.0mph /  29km/h 60% 0.00in /  0mm
17:11 85.3 °F /  29.6 °C 69.4 °F /  20.8 °C 29.71in /  1006hPa SE 14.0mph /  22.5km/h 18.0mph /  29km/h 59% 0.00in /  0mm
17:16 85.1 °F /  29.5 °C 69.2 °F /  20.7 °C 29.72in /  1006.3hPa SSE 15.0mph /  24.1km/h 20.0mph /  32.2km/h 59% 0.00in /  0mm
17:21 85.0 °F /  29.4 °C 69.6 °F /  20.9 °C 29.71in /  1006hPa South 14.0mph /  22.5km/h 20.0mph /  32.2km/h 60% 0.00in /  0mm
17:26 85.4 °F /  29.7 °C 69.9 °F /  21.1 °C 29.71in /  1006hPa South 3.0mph /  4.8km/h 18.0mph /  29km/h 60% 0.00in /  0mm
17:27 85.5 °F /  29.7 °C 69.1 °F /  20.6 °C 29.71in /  1006hPa SE 13.0mph /  20.9km/h 16.0mph /  25.7km/h 58% 0.00in /  0mm
17:29 85.6 °F /  29.8 °C 69.6 °F /  20.9 °C 29.71in /  1006hPa SSE 7.0mph /  11.3km/h 16.0mph /  25.7km/h 59% 0.00in /  0mm
17:30 85.6 °F /  29.8 °C 68.6 °F /  20.3 °C 29.71in /  1006hPa SW 13.0mph /  20.9km/h 18.0mph /  29km/h 57% 0.00in /  0mm
17:31 85.6 °F /  29.8 °C 68.6 °F /  20.3 °C 29.71in /  1006hPa SSW 14.0mph /  22.5km/h 18.0mph /  29km/h 57% 0.00in /  0mm
17:34 85.6 °F /  29.8 °C 68.6 °F /  20.3 °C 29.70in /  1005.6hPa SSW 10.0mph /  16.1km/h 15.0mph /  24.1km/h 57% 0.00in /  0mm
17:35 85.6 °F /  29.8 °C 69.1 °F /  20.6 °C 29.71in /  1006hPa SSE 9.0mph /  14.5km/h 14.0mph /  22.5km/h 58% 0.00in /  0mm
17:36 85.6 °F /  29.8 °C 69.6 °F /  20.9 °C 29.70in /  1005.6hPa SE 10.0mph /  16.1km/h 16.0mph /  25.7km/h 59% 0.00in /  0mm
17:40 85.3 °F /  29.6 °C 68.3 °F /  20.2 °C 29.70in /  1005.6hPa ESE 18.0mph /  29km/h 21.0mph /  33.8km/h 57% 0.00in /  0mm
17:42 84.7 °F /  29.3 °C 67.8 °F /  19.9 °C 29.71in /  1006hPa SE 21.0mph /  33.8km/h 24.0mph /  38.6km/h 57% 0.00in /  0mm
17:45 84.4 °F /  29.1 °C 68.5 °F /  20.3 °C 29.70in /  1005.6hPa SE 11.0mph /  17.7km/h 21.0mph /  33.8km/h 59% 0.00in /  0mm
17:50 84.1 °F /  28.9 °C 68.7 °F /  20.4 °C 29.70in /  1005.6hPa SSE 12.0mph /  19.3km/h 22.0mph /  35.4km/h 60% 0.00in /  0mm
17:51 84.2 °F /  29 °C 68.3 °F /  20.2 °C 29.70in /  1005.6hPa SSE 8.0mph /  12.9km/h 18.0mph /  29km/h 59% 0.00in /  0mm
17:56 84.5 °F /  29.2 °C 69.6 °F /  20.9 °C 29.70in /  1005.6hPa SE 12.0mph /  19.3km/h 12.0mph /  19.3km/h 61% 0.00in /  0mm
17:58 84.5 °F /  29.2 °C 69.1 °F /  20.6 °C 29.70in /  1005.6hPa SSE 10.0mph /  16.1km/h 14.0mph /  22.5km/h 60% 0.00in /  0mm
18:00 84.4 °F /  29.1 °C 68.0 °F /  20 °C 29.69in /  1005.3hPa South 11.0mph /  17.7km/h 21.0mph /  33.8km/h 58% 0.00in /  0mm
18:02 84.4 °F /  29.1 °C 68.5 °F /  20.3 °C 29.69in /  1005.3hPa SSE 14.0mph /  22.5km/h 21.0mph /  33.8km/h 59% 0.00in /  0mm
18:07 84.4 °F /  29.1 °C 68.0 °F /  20 °C 29.68in /  1005hPa SSW 12.0mph /  19.3km/h 19.0mph /  30.6km/h 58% 0.00in /  0mm
18:12 84.2 °F /  29 °C 67.8 °F /  19.9 °C 29.69in /  1005.3hPa SSW 8.0mph /  12.9km/h 17.0mph /  27.4km/h 58% 0.00in /  0mm
18:17 84.2 °F /  29 °C 67.8 °F /  19.9 °C 29.68in /  1005hPa South 11.0mph /  17.7km/h 20.0mph /  32.2km/h 58% 0.00in /  0mm
18:22 84.2 °F /  29 °C 67.8 °F /  19.9 °C 29.68in /  1005hPa South 12.0mph /  19.3km/h 21.0mph /  33.8km/h 58% 0.00in /  0mm
18:27 84.1 °F /  28.9 °C 68.2 °F /  20.1 °C 29.67in /  1004.6hPa SSE 15.0mph /  24.1km/h 18.0mph /  29km/h 59% 0.00in /  0mm
18:28 84.1 °F /  28.9 °C 68.7 °F /  20.4 °C 29.68in /  1005hPa SSW 10.0mph /  16.1km/h 18.0mph /  29km/h 60% 0.00in /  0mm
18:32 84.0 °F /  28.9 °C 68.1 °F /  20.1 °C 29.67in /  1004.6hPa SE 19.0mph /  30.6km/h 21.0mph /  33.8km/h 59% 0.00in /  0mm
18:33 84.0 °F /  28.9 °C 67.7 °F /  19.8 °C 29.68in /  1005hPa SSE 15.0mph /  24.1km/h 23.0mph /  37km/h 58% 0.00in /  0mm
18:34 84.0 °F /  28.9 °C 67.7 °F /  19.8 °C 29.68in /  1005hPa SSE 20.0mph /  32.2km/h 23.0mph /  37km/h 58% 0.00in /  0mm
18:38 83.9 °F /  28.8 °C 68.1 °F /  20.1 °C 29.68in /  1005hPa SSE 12.0mph /  19.3km/h 17.0mph /  27.4km/h 59% 0.00in /  0mm
18:39 83.9 °F /  28.8 °C 68.1 °F /  20.1 °C 29.67in /  1004.6hPa SSW 10.0mph /  16.1km/h 18.0mph /  29km/h 59% 0.00in /  0mm
18:43 83.6 °F /  28.7 °C 68.3 °F /  20.2 °C 29.67in /  1004.6hPa SSE 11.0mph /  17.7km/h 21.0mph /  33.8km/h 60% 0.00in /  0mm
18:48 83.5 °F /  28.6 °C 68.2 °F /  20.1 °C 29.67in /  1004.6hPa SSE 9.0mph /  14.5km/h 13.0mph /  20.9km/h 60% 0.00in /  0mm
18:53 83.5 °F /  28.6 °C 68.2 °F /  20.1 °C 29.67in /  1004.6hPa SE 16.0mph /  25.7km/h 16.0mph /  25.7km/h 60% 0.00in /  0mm
18:54 83.5 °F /  28.6 °C 68.2 °F /  20.1 °C 29.67in /  1004.6hPa SE 17.0mph /  27.4km/h 19.0mph /  30.6km/h 60% 0.00in /  0mm
18:58 83.4 °F /  28.6 °C 68.1 °F /  20.1 °C 29.67in /  1004.6hPa SSW 18.0mph /  29km/h 18.0mph /  29km/h 60% 0.00in /  0mm
19:00 83.4 °F /  28.6 °C 68.1 °F /  20.1 °C 29.67in /  1004.6hPa SSE 12.0mph /  19.3km/h 21.0mph /  33.8km/h 60% 0.00in /  0mm
19:03 83.4 °F /  28.6 °C 68.1 °F /  20.1 °C 29.67in /  1004.6hPa SE 13.0mph /  20.9km/h 18.0mph /  29km/h 60% 0.00in /  0mm
19:05 83.3 °F /  28.5 °C 68.0 °F /  20 °C 29.67in /  1004.6hPa SSE 9.0mph /  14.5km/h 18.0mph /  29km/h 60% 0.00in /  0mm
19:09 83.3 °F /  28.5 °C 68.0 °F /  20 °C 29.67in /  1004.6hPa South 10.0mph /  16.1km/h 22.0mph /  35.4km/h 60% 0.00in /  0mm
19:14 83.3 °F /  28.5 °C 68.5 °F /  20.3 °C 29.66in /  1004.3hPa SSE 8.0mph /  12.9km/h 14.0mph /  22.5km/h 61% 0.00in /  0mm
19:19 83.2 °F /  28.4 °C 68.4 °F /  20.2 °C 29.66in /  1004.3hPa SSE 12.0mph /  19.3km/h 16.0mph /  25.7km/h 61% 0.00in /  0mm
19:24 83.0 °F /  28.3 °C 68.2 °F /  20.1 °C 29.66in /  1004.3hPa SE 9.0mph /  14.5km/h 17.0mph /  27.4km/h 61% 0.00in /  0mm
19:29 82.4 °F /  28 °C 67.6 °F /  19.8 °C 29.66in /  1004.3hPa SSE 14.0mph /  22.5km/h 17.0mph /  27.4km/h 61% 0.00in /  0mm
19:30 82.3 °F /  27.9 °C 68.0 °F /  20 °C 29.66in /  1004.3hPa SE 14.0mph /  22.5km/h 17.0mph /  27.4km/h 62% 0.00in /  0mm
19:34 81.8 °F /  27.7 °C 67.5 °F /  19.7 °C 29.66in /  1004.3hPa SE 16.0mph /  25.7km/h 20.0mph /  32.2km/h 62% 0.00in /  0mm
19:35 81.8 °F /  27.7 °C 67.5 °F /  19.7 °C 29.66in /  1004.3hPa SSW 12.0mph /  19.3km/h 21.0mph /  33.8km/h 62% 0.00in /  0mm
19:36 81.8 °F /  27.7 °C 67.5 °F /  19.7 °C 29.66in /  1004.3hPa South 12.0mph /  19.3km/h 21.0mph /  33.8km/h 62% 0.00in /  0mm
19:41 81.6 °F /  27.6 °C 67.3 °F /  19.6 °C 29.66in /  1004.3hPa SSE 10.0mph /  16.1km/h 24.0mph /  38.6km/h 62% 0.00in /  0mm
19:46 81.3 °F /  27.4 °C 67.5 °F /  19.7 °C 29.66in /  1004.3hPa South 5.0mph /  8km/h 15.0mph /  24.1km/h 63% 0.00in /  0mm
19:51 81.1 °F /  27.3 °C 67.3 °F /  19.6 °C 29.66in /  1004.3hPa ESE 13.0mph /  20.9km/h 17.0mph /  27.4km/h 63% 0.00in /  0mm
19:56 81.1 °F /  27.3 °C 67.3 °F /  19.6 °C 29.66in /  1004.3hPa SE 13.0mph /  20.9km/h 18.0mph /  29km/h 63% 0.00in /  0mm
19:57 81.1 °F /  27.3 °C 67.3 °F /  19.6 °C 29.67in /  1004.6hPa SE 11.0mph /  17.7km/h 18.0mph /  29km/h 63% 0.00in /  0mm
19:59 81.1 °F /  27.3 °C 67.3 °F /  19.6 °C 29.66in /  1004.3hPa SSE 13.0mph /  20.9km/h 18.0mph /  29km/h 63% 0.00in /  0mm
20:00 81.0 °F /  27.2 °C 67.2 °F /  19.6 °C 29.66in /  1004.3hPa SE 11.0mph /  17.7km/h 14.0mph /  22.5km/h 63% 0.00in /  0mm
20:02 80.9 °F /  27.2 °C 67.6 °F /  19.8 °C 29.66in /  1004.3hPa SSW 12.0mph /  19.3km/h 15.0mph /  24.1km/h 64% 0.00in /  0mm
20:07 80.9 °F /  27.2 °C 67.1 °F /  19.5 °C 29.66in /  1004.3hPa SE 20.0mph /  32.2km/h 20.0mph /  32.2km/h 63% 0.00in /  0mm
20:12 80.9 °F /  27.2 °C 67.1 °F /  19.5 °C 29.66in /  1004.3hPa SSW 10.0mph /  16.1km/h 15.0mph /  24.1km/h 63% 0.00in /  0mm
20:17 80.8 °F /  27.1 °C 67.5 °F /  19.7 °C 29.66in /  1004.3hPa SSE 12.0mph /  19.3km/h 17.0mph /  27.4km/h 64% 0.00in /  0mm
20:22 81.0 °F /  27.2 °C 67.2 °F /  19.6 °C 29.66in /  1004.3hPa SSE 16.0mph /  25.7km/h 22.0mph /  35.4km/h 63% 0.00in /  0mm
20:27 80.9 °F /  27.2 °C 67.1 °F /  19.5 °C 29.66in /  1004.3hPa South 10.0mph /  16.1km/h 17.0mph /  27.4km/h 63% 0.00in /  0mm
20:28 80.8 °F /  27.1 °C 67.0 °F /  19.4 °C 29.66in /  1004.3hPa SSE 17.0mph /  27.4km/h 17.0mph /  27.4km/h 63% 0.00in /  0mm
20:30 80.8 °F /  27.1 °C 67.0 °F /  19.4 °C 29.66in /  1004.3hPa SE 10.0mph /  16.1km/h 18.0mph /  29km/h 63% 0.00in /  0mm
20:33 80.8 °F /  27.1 °C 67.0 °F /  19.4 °C 29.66in /  1004.3hPa SSE 7.0mph /  11.3km/h 18.0mph /  29km/h 63% 0.00in /  0mm
20:37 80.6 °F /  27 °C 67.3 °F /  19.6 °C 29.66in /  1004.3hPa SSE 13.0mph /  20.9km/h 17.0mph /  27.4km/h 64% 0.00in /  0mm
20:42 80.5 °F /  26.9 °C 67.2 °F /  19.6 °C 29.66in /  1004.3hPa SW 10.0mph /  16.1km/h 15.0mph /  24.1km/h 64% 0.00in /  0mm
20:47 80.5 °F /  26.9 °C 67.2 °F /  19.6 °C 29.67in /  1004.6hPa SE 12.0mph /  19.3km/h 15.0mph /  24.1km/h 64% 0.00in /  0mm
20:52 80.5 °F /  26.9 °C 67.2 °F /  19.6 °C 29.66in /  1004.3hPa SSE 9.0mph /  14.5km/h 14.0mph /  22.5km/h 64% 0.00in /  0mm
20:57 80.5 °F /  26.9 °C 67.2 °F /  19.6 °C 29.65in /  1003.9hPa SSE 11.0mph /  17.7km/h 17.0mph /  27.4km/h 64% 0.00in /  0mm
20:58 80.5 °F /  26.9 °C 67.2 °F /  19.6 °C 29.65in /  1003.9hPa South 11.0mph /  17.7km/h 17.0mph /  27.4km/h 64% 0.00in /  0mm
21:00 80.4 °F /  26.9 °C 67.1 °F /  19.5 °C 29.66in /  1004.3hPa SE 16.0mph /  25.7km/h 16.0mph /  25.7km/h 64% 0.00in /  0mm
21:03 80.4 °F /  26.9 °C 67.1 °F /  19.5 °C 29.66in /  1004.3hPa SE 10.0mph /  16.1km/h 16.0mph /  25.7km/h 64% 0.00in /  0mm
21:08 80.3 °F /  26.8 °C 67.0 °F /  19.4 °C 29.65in /  1003.9hPa SE 13.0mph /  20.9km/h 15.0mph /  24.1km/h 64% 0.00in /  0mm
21:13 80.2 °F /  26.8 °C 66.9 °F /  19.4 °C 29.64in /  1003.6hPa SE 13.0mph /  20.9km/h 17.0mph /  27.4km/h 64% 0.00in /  0mm
21:18 80.3 °F /  26.8 °C 67.0 °F /  19.4 °C 29.65in /  1003.9hPa SE 10.0mph /  16.1km/h 19.0mph /  30.6km/h 64% 0.00in /  0mm
21:19 80.2 °F /  26.8 °C 66.9 °F /  19.4 °C 29.65in /  1003.9hPa SSW 11.0mph /  17.7km/h 19.0mph /  30.6km/h 64% 0.00in /  0mm
21:24 80.2 °F /  26.8 °C 66.9 °F /  19.4 °C 29.65in /  1003.9hPa South 8.0mph /  12.9km/h 14.0mph /  22.5km/h 64% 0.00in /  0mm
21:29 80.1 °F /  26.7 °C 66.8 °F /  19.3 °C 29.65in /  1003.9hPa South 5.0mph /  8km/h 16.0mph /  25.7km/h 64% 0.00in /  0mm
21:30 80.1 °F /  26.7 °C 66.8 °F /  19.3 °C 29.65in /  1003.9hPa SE 16.0mph /  25.7km/h 16.0mph /  25.7km/h 64% 0.00in /  0mm
21:34 80.1 °F /  26.7 °C 66.4 °F /  19.1 °C 29.66in /  1004.3hPa SSE 12.0mph /  19.3km/h 22.0mph /  35.4km/h 63% 0.00in /  0mm
21:38 80.1 °F /  26.7 °C 66.8 °F /  19.3 °C 29.65in /  1003.9hPa South 4.0mph /  6.4km/h 19.0mph /  30.6km/h 64% 0.00in /  0mm
21:43 79.9 °F /  26.6 °C 66.7 °F /  19.3 °C 29.64in /  1003.6hPa SE 11.0mph /  17.7km/h 14.0mph /  22.5km/h 64% 0.00in /  0mm
21:48 79.8 °F /  26.6 °C 66.6 °F /  19.2 °C 29.64in /  1003.6hPa SE 11.0mph /  17.7km/h 13.0mph /  20.9km/h 64% 0.00in /  0mm
21:53 79.7 °F /  26.5 °C 66.9 °F /  19.4 °C 29.65in /  1003.9hPa SE 10.0mph /  16.1km/h 16.0mph /  25.7km/h 65% 0.00in /  0mm
21:54 79.8 °F /  26.6 °C 66.6 °F /  19.2 °C 29.65in /  1003.9hPa South 11.0mph /  17.7km/h 16.0mph /  25.7km/h 64% 0.00in /  0mm
21:59 79.8 °F /  26.6 °C 67.0 °F /  19.4 °C 29.65in /  1003.9hPa SSE 11.0mph /  17.7km/h 17.0mph /  27.4km/h 65% 0.00in /  0mm
22:00 79.8 °F /  26.6 °C 67.0 °F /  19.4 °C 29.65in /  1003.9hPa SSE 11.0mph /  17.7km/h 16.0mph /  25.7km/h 65% 0.00in /  0mm
22:04 79.7 °F /  26.5 °C 66.9 °F /  19.4 °C 29.65in /  1003.9hPa SSE 8.0mph /  12.9km/h 14.0mph /  22.5km/h 65% 0.00in /  0mm
22:09 79.5 °F /  26.4 °C 67.2 °F /  19.6 °C 29.66in /  1004.3hPa SSE 9.0mph /  14.5km/h 11.0mph /  17.7km/h 66% 0.00in /  0mm
22:10 79.5 °F /  26.4 °C 67.2 °F /  19.6 °C 29.66in /  1004.3hPa SE 11.0mph /  17.7km/h 11.0mph /  17.7km/h 66% 0.00in /  0mm
22:15 79.5 °F /  26.4 °C 67.2 °F /  19.6 °C 29.66in /  1004.3hPa SE 11.0mph /  17.7km/h 14.0mph /  22.5km/h 66% 0.00in /  0mm
22:20 79.4 °F /  26.3 °C 67.1 °F /  19.5 °C 29.66in /  1004.3hPa SSE 12.0mph /  19.3km/h 13.0mph /  20.9km/h 66% 0.00in /  0mm
22:25 79.4 °F /  26.3 °C 66.6 °F /  19.2 °C 29.66in /  1004.3hPa SE 9.0mph /  14.5km/h 15.0mph /  24.1km/h 65% 0.00in /  0mm
22:30 79.6 °F /  26.4 °C 66.4 °F /  19.1 °C 29.65in /  1003.9hPa South 12.0mph /  19.3km/h 16.0mph /  25.7km/h 64% 0.00in /  0mm
22:31 79.6 °F /  26.4 °C 66.8 °F /  19.3 °C 29.65in /  1003.9hPa SSE 8.0mph /  12.9km/h 16.0mph /  25.7km/h 65% 0.00in /  0mm
22:35 79.5 °F /  26.4 °C 66.7 °F /  19.3 °C 29.66in /  1004.3hPa SE 14.0mph /  22.5km/h 20.0mph /  32.2km/h 65% 0.00in /  0mm
22:37 79.6 °F /  26.4 °C 66.8 °F /  19.3 °C 29.65in /  1003.9hPa SSE 10.0mph /  16.1km/h 20.0mph /  32.2km/h 65% 0.00in /  0mm
22:40 79.5 °F /  26.4 °C 66.7 °F /  19.3 °C 29.65in /  1003.9hPa SSE 16.0mph /  25.7km/h 16.0mph /  25.7km/h 65% 0.00in /  0mm
22:45 79.5 °F /  26.4 °C 66.7 °F /  19.3 °C 29.65in /  1003.9hPa SE 7.0mph /  11.3km/h 16.0mph /  25.7km/h 65% 0.00in /  0mm
22:50 79.4 °F /  26.3 °C 66.6 °F /  19.2 °C 29.65in /  1003.9hPa South 10.0mph /  16.1km/h 18.0mph /  29km/h 65% 0.00in /  0mm
22:52 79.4 °F /  26.3 °C 66.6 °F /  19.2 °C 29.65in /  1003.9hPa SSE 12.0mph /  19.3km/h 12.0mph /  19.3km/h 65% 0.00in /  0mm
22:53 79.4 °F /  26.3 °C 66.2 °F /  19 °C 29.65in /  1003.9hPa SSE 9.0mph /  14.5km/h 12.0mph /  19.3km/h 64% 0.00in /  0mm
22:57 79.4 °F /  26.3 °C 66.2 °F /  19 °C 29.66in /  1004.3hPa SE 7.0mph /  11.3km/h 24.0mph /  38.6km/h 64% 0.00in /  0mm
22:58 79.5 °F /  26.4 °C 66.3 °F /  19.1 °C 29.65in /  1003.9hPa SE 11.0mph /  17.7km/h 24.0mph /  38.6km/h 64% 0.00in /  0mm
23:00 79.6 °F /  26.4 °C 66.4 °F /  19.1 °C 29.65in /  1003.9hPa SSE 12.0mph /  19.3km/h 17.0mph /  27.4km/h 64% 0.00in /  0mm
23:03 79.5 °F /  26.4 °C 66.3 °F /  19.1 °C 29.66in /  1004.3hPa SSW 10.0mph /  16.1km/h 17.0mph /  27.4km/h 64% 0.00in /  0mm
23:08 79.7 °F /  26.5 °C 66.0 °F /  18.9 °C 29.65in /  1003.9hPa South 14.0mph /  22.5km/h 21.0mph /  33.8km/h 63% 0.00in /  0mm
23:13 79.7 °F /  26.5 °C 66.0 °F /  18.9 °C 29.65in /  1003.9hPa SSE 10.0mph /  16.1km/h 14.0mph /  22.5km/h 63% 0.00in /  0mm
23:18 79.5 °F /  26.4 °C 66.3 °F /  19.1 °C 29.66in /  1004.3hPa South 8.0mph /  12.9km/h 15.0mph /  24.1km/h 64% 0.00in /  0mm
23:19 79.5 °F /  26.4 °C 66.3 °F /  19.1 °C 29.66in /  1004.3hPa SSE 12.0mph /  19.3km/h 15.0mph /  24.1km/h 64% 0.00in /  0mm
23:24 79.3 °F /  26.3 °C 66.1 °F /  18.9 °C 29.65in /  1003.9hPa SE 12.0mph /  19.3km/h 15.0mph /  24.1km/h 64% 0.00in /  0mm
23:29 79.2 °F /  26.2 °C 66.0 °F /  18.9 °C 29.65in /  1003.9hPa SSE 8.0mph /  12.9km/h 16.0mph /  25.7km/h 64% 0.00in /  0mm
23:30 79.2 °F /  26.2 °C 66.0 °F /  18.9 °C 29.64in /  1003.6hPa SE 12.0mph /  19.3km/h 17.0mph /  27.4km/h 64% 0.00in /  0mm
23:31 79.2 °F /  26.2 °C 66.0 °F /  18.9 °C 29.64in /  1003.6hPa SSE 16.0mph /  25.7km/h 17.0mph /  27.4km/h 64% 0.00in /  0mm
23:36 79.2 °F /  26.2 °C 66.0 °F /  18.9 °C 29.63in /  1003.3hPa SSE 6.0mph /  9.7km/h 16.0mph /  25.7km/h 64% 0.00in /  0mm
23:41 79.0 °F /  26.1 °C 65.8 °F /  18.8 °C 29.63in /  1003.3hPa SSE 13.0mph /  20.9km/h 19.0mph /  30.6km/h 64% 0.00in /  0mm
23:46 79.0 °F /  26.1 °C 66.2 °F /  19 °C 29.64in /  1003.6hPa SE 13.0mph /  20.9km/h 19.0mph /  30.6km/h 65% 0.00in /  0mm
23:47 79.0 °F /  26.1 °C 66.2 °F /  19 °C 29.64in /  1003.6hPa South 10.0mph /  16.1km/h 16.0mph /  25.7km/h 65% 0.00in /  0mm
23:52 79.2 °F /  26.2 °C 66.4 °F /  19.1 °C 29.65in /  1003.9hPa SSE 20.0mph /  32.2km/h 20.0mph /  32.2km/h 65% 0.00in /  0mm
23:53 79.1 °F /  26.2 °C 66.3 °F /  19.1 °C 29.66in /  1004.3hPa South 11.0mph /  17.7km/h 20.0mph /  32.2km/h 65% 0.00in /  0mm
23:54 79.2 °F /  26.2 °C 66.4 °F /  19.1 °C 29.66in /  1004.3hPa South 10.0mph /  16.1km/h 20.0mph /  32.2km/h 65% 0.00in /  0mm
23:58 79.2 °F /  26.2 °C 66.4 °F /  19.1 °C 29.67in /  1004.6hPa SSW 12.0mph /  19.3km/h 16.0mph /  25.7km/h 65% 0.00in /  0mm
Compliments of Weather Underground